Time;durP1;ratioP1;P1;durP2;ratioP2;P2;SDS_P1;SDS_P2;PMS_P1;PMS_P2;Temp;Humidity;BMP_temperature;BMP_pressure;BME280_temperature;BME280_humidity;BME280_pressure;Samples;Min_cycle;Max_cycle;Signal;HPM_P1;HPM_P2
2023/08/15 00:01:11;;;;;;;;;;;;;;;19.53;46.74;95477.56;4997620;28;19927;-71
2023/08/15 00:03:36;;;;;;;;;;;;;;;19.58;46.24;95470.38;4994467;28;19926;-70
2023/08/15 00:06:02;;;;;;;;;;;;;;;19.61;46.05;95471.78;4980141;28;19922;-70
2023/08/15 00:08:27;;;;;;;;;;;;;;;19.60;48.22;95472.84;4978295;28;19934;-70
2023/08/15 00:10:52;;;;;;;;;;;;;;;19.53;46.67;95467.59;4968670;28;19933;-69
2023/08/15 00:13:17;;;;;;;;;;;;;;;19.59;46.21;95465.81;4972928;28;19930;-70
2023/08/15 00:15:43;;;;;;;;;;;;;;;19.50;47.93;95462.66;4967700;28;20566;-71
2023/08/15 00:18:08;;;;;;;;;;;;;;;19.52;45.99;95465.13;4976119;28;20422;-69
2023/08/15 00:20:33;;;;;;;;;;;;;;;19.53;45.99;95470.28;4978062;28;19960;-71
2023/08/15 00:22:58;;;;;;;;;;;;;;;19.37;48.54;95469.16;4993849;28;20185;-71
2023/08/15 00:25:24;;;;;;;;;;;;;;;19.29;47.16;95464.13;4982932;28;20664;-71
2023/08/15 00:27:49;;;;;;;;;;;;;;;19.36;46.18;95458.59;4977032;28;20013;-70
2023/08/15 00:30:14;;;;;;;;;;;;;;;19.33;47.80;95463.41;4976226;28;19977;-70
2023/08/15 00:32:39;;;;;;;;;;;;;;;19.37;47.24;95449.47;4978088;28;20078;-72
2023/08/15 00:35:05;;;;;;;;;;;;;;;19.40;46.56;95448.97;4991021;28;20003;-72
2023/08/15 00:37:33;;;;;;;;;;;;;;;19.39;46.22;95444.63;4989181;28;19968;-72
2023/08/15 00:39:59;;;;;;;;;;;;;;;19.36;47.04;95447.78;4985067;28;19929;-72
2023/08/15 00:42:24;;;;;;;;;;;;;;;19.33;47.54;95444.53;4986254;28;19926;-72
2023/08/15 00:44:49;;;;;;;;;;;;;;;19.33;47.95;95441.84;4986230;28;20184;-72
2023/08/15 00:47:15;;;;;;;;;;;;;;;19.28;47.13;95440.91;4982743;28;19963;-72
2023/08/15 00:49:41;;;;;;;;;;;;;;;19.21;46.59;95438.31;4986313;28;20473;-72
2023/08/15 00:52:06;;;;;;;;;;;;;;;19.17;47.75;95448.75;4989381;28;20393;-72
2023/08/15 00:54:31;;;;;;;;;;;;;;;19.13;47.26;95438.66;4985533;28;19925;-72
2023/08/15 00:56:56;;;;;;;;;;;;;;;19.15;46.33;95442.78;4983043;28;19922;-72
2023/08/15 00:59:22;;;;;;;;;;;;;;;19.12;47.65;95427.06;4983946;28;19926;-72
2023/08/15 01:01:47;;;;;;;;;;;;;;;19.05;47.81;95427.19;4984792;28;19922;-72
2023/08/15 01:04:13;;;;;;;;;;;;;;;19.05;46.44;95429.06;4997646;23;19937;-70
2023/08/15 01:06:38;;;;;;;;;;;;;;;19.02;46.70;95427.66;4995477;28;20791;-71
2023/08/15 01:09:04;;;;;;;;;;;;;;;18.97;47.66;95427.56;4998096;28;20062;-70
2023/08/15 01:11:30;;;;;;;;;;;;;;;18.99;47.46;95422.75;4999076;28;19921;-71
2023/08/15 01:13:59;;;;;;;;;;;;;;;18.96;47.41;95417.81;4984471;28;20036;-70
2023/08/15 01:16:28;;;;;;;;;;;;;;;18.96;47.17;95417.81;4996333;28;20580;-71
2023/08/15 01:18:55;;;;;;;;;;;;;;;18.87;47.86;95411.16;4996547;28;19925;-74
2023/08/15 01:21:24;;;;;;;;;;;;;;;18.83;47.40;95408.09;4997727;28;19929;-73
2023/08/15 01:23:49;;;;;;;;;;;;;;;18.77;47.76;95401.78;4994049;28;19944;-74
2023/08/15 01:26:14;;;;;;;;;;;;;;;18.72;48.21;95401.66;4995428;28;20513;-73
2023/08/15 01:28:40;;;;;;;;;;;;;;;18.68;47.77;95403.19;4996684;28;19929;-74
2023/08/15 01:31:23;;;;;;;;;;;;;;;18.63;47.51;95408.47;4998205;28;20545;-73
2023/08/15 01:33:49;;;;;;;;;;;;;;;18.56;47.34;95413.97;4997210;28;19971;-73
2023/08/15 01:36:20;;;;;;;;;;;;;;;18.48;48.43;95407.03;4997762;28;20407;-73
2023/08/15 01:38:46;;;;;;;;;;;;;;;18.42;47.85;95402.56;4996586;28;19925;-73
2023/08/15 01:41:14;;;;;;;;;;;;;;;18.38;48.02;95407.63;5000370;28;19926;-73
2023/08/15 01:43:40;;;;;;;;;;;;;;;18.39;47.70;95417.34;4995421;28;19917;-73
2023/08/15 01:46:05;;;;;;;;;;;;;;;18.38;47.77;95420.25;4997987;28;19926;-73
2023/08/15 01:48:30;;;;;;;;;;;;;;;18.33;47.93;95420.16;4989603;28;19932;-73
2023/08/15 01:50:55;;;;;;;;;;;;;;;18.30;47.77;95419.56;4973184;28;20666;-73
2023/08/15 01:53:21;;;;;;;;;;;;;;;18.31;48.06;95421.22;4976159;28;19969;-74
2023/08/15 01:55:46;;;;;;;;;;;;;;;18.27;48.15;95425.41;4978027;28;19953;-73
2023/08/15 01:58:11;;;;;;;;;;;;;;;18.24;48.46;95415.09;4977751;28;19925;-73
2023/08/15 02:00:36;;;;;;;;;;;;;;;18.22;48.47;95427.16;4982576;28;19955;-73
2023/08/15 02:03:02;;;;;;;;;;;;;;;18.16;48.16;95426.22;4984179;28;19996;-73
2023/08/15 02:05:27;;;;;;;;;;;;;;;18.20;47.82;95435.47;4995964;28;19948;-74
2023/08/15 02:07:52;;;;;;;;;;;;;;;18.16;48.04;95428.91;4995932;28;19933;-73
2023/08/15 02:10:17;;;;;;;;;;;;;;;18.23;47.67;95432.31;4995964;28;20035;-74
2023/08/15 02:12:43;;;;;;;;;;;;;;;18.28;49.11;95428.91;4993628;28;19965;-72
2023/08/15 02:15:08;;;;;;;;;;;;;;;18.31;47.78;95428.47;4996487;28;19968;-72
2023/08/15 02:17:33;;;;;;;;;;;;;;;18.25;50.38;95446.38;5002527;28;19929;-72
2023/08/15 02:19:58;;;;;;;;;;;;;;;18.28;50.51;95445.09;4997855;28;20386;-72
2023/08/15 02:22:24;;;;;;;;;;;;;;;18.33;49.43;95449.78;5016662;28;20534;-72
2023/08/15 02:24:49;;;;;;;;;;;;;;;18.45;50.03;95445.22;5017176;28;19948;-72
2023/08/15 02:27:15;;;;;;;;;;;;;;;18.53;48.78;95431.41;5017104;28;19964;-72
2023/08/15 02:29:40;;;;;;;;;;;;;;;18.60;48.97;95435.91;5015943;28;19935;-73
2023/08/15 02:32:05;;;;;;;;;;;;;;;18.63;48.70;95427.34;5016423;28;19925;-72
2023/08/15 02:34:31;;;;;;;;;;;;;;;18.65;47.38;95422.53;5016987;28;19967;-72
2023/08/15 02:36:56;;;;;;;;;;;;;;;18.68;47.46;95420.19;5016912;28;19952;-72
2023/08/15 02:39:21;;;;;;;;;;;;;;;18.71;47.81;95418.91;5017906;28;19921;-72
2023/08/15 02:41:46;;;;;;;;;;;;;;;18.68;47.90;95422.91;5016251;28;19925;-72
2023/08/15 02:44:12;;;;;;;;;;;;;;;18.70;46.71;95414.56;5016812;28;19930;-73
2023/08/15 02:46:37;;;;;;;;;;;;;;;18.67;47.33;95410.44;5017380;28;19925;-72
2023/08/15 02:49:03;;;;;;;;;;;;;;;18.65;46.93;95409.06;5017123;28;20380;-72
2023/08/15 02:51:28;;;;;;;;;;;;;;;18.68;47.07;95412.13;5015512;28;19956;-73
2023/08/15 02:53:53;;;;;;;;;;;;;;;18.69;46.63;95396.75;5016885;28;19993;-72
2023/08/15 02:56:18;;;;;;;;;;;;;;;18.60;47.59;95393.59;5016786;28;19929;-72
2023/08/15 02:58:44;;;;;;;;;;;;;;;18.70;47.26;95398.41;5016593;28;19917;-72
2023/08/15 03:01:09;;;;;;;;;;;;;;;18.83;48.05;95416.19;5014731;28;19986;-72
2023/08/15 03:03:34;;;;;;;;;;;;;;;18.80;50.75;95420.19;5011782;28;20031;-72
2023/08/15 03:06:00;;;;;;;;;;;;;;;18.63;51.40;95411.19;5015438;28;19972;-72
2023/08/15 03:08:25;;;;;;;;;;;;;;;18.54;48.46;95406.09;5010538;28;19921;-72
2023/08/15 03:10:51;;;;;;;;;;;;;;;18.65;47.60;95419.84;5017304;28;19952;-72
2023/08/15 03:13:16;;;;;;;;;;;;;;;18.78;48.08;95426.88;5018674;28;20031;-72
2023/08/15 03:15:42;;;;;;;;;;;;;;;19.06;50.34;95436.94;5021239;28;20465;-72
2023/08/15 03:18:08;;;;;;;;;;;;;;;18.89;52.53;95442.22;5019226;28;19931;-72
2023/08/15 03:20:33;;;;;;;;;;;;;;;19.02;51.24;95449.25;5017618;28;19975;-72
2023/08/15 03:22:58;;;;;;;;;;;;;;;19.03;50.78;95448.19;5019603;28;19931;-73
2023/08/15 03:25:24;;;;;;;;;;;;;;;19.08;49.55;95466.38;5020215;28;19921;-73
2023/08/15 03:27:49;;;;;;;;;;;;;;;19.10;48.47;95458.03;5020362;28;19921;-73
2023/08/15 03:30:14;;;;;;;;;;;;;;;19.06;52.20;95458.50;5016306;28;19931;-73
2023/08/15 03:32:39;;;;;;;;;;;;;;;19.11;51.54;95459.66;5034989;28;19963;-72
2023/08/15 03:35:06;;;;;;;;;;;;;;;19.06;49.97;95458.50;5020732;28;19929;-71
2023/08/15 03:37:31;;;;;;;;;;;;;;;19.14;49.56;95448.41;5020379;28;19983;-73
2023/08/15 03:39:56;;;;;;;;;;;;;;;19.17;48.07;95447.94;5018946;28;19937;-73
2023/08/15 03:42:21;;;;;;;;;;;;;;;19.18;47.17;95457.66;5017756;28;19925;-73
2023/08/15 03:44:47;;;;;;;;;;;;;;;19.19;48.93;95470.94;5017391;28;20000;-73
2023/08/15 03:47:12;;;;;;;;;;;;;;;19.17;48.84;95473.03;5013561;28;19975;-72
2023/08/15 03:49:37;;;;;;;;;;;;;;;19.03;50.15;95482.41;5018603;28;19937;-73
2023/08/15 03:52:03;;;;;;;;;;;;;;;19.02;50.35;95492.41;5013552;28;19931;-73
2023/08/15 03:54:28;;;;;;;;;;;;;;;18.96;53.21;95541.88;5020102;28;20347;-72
2023/08/15 03:56:53;;;;;;;;;;;;;;;18.38;54.85;95546.91;4997066;28;19936;-73
2023/08/15 03:59:18;;;;;;;;;;;;;;;18.27;56.09;95575.47;5019996;28;19964;-72
2023/08/15 04:01:44;;;;;;;;;;;;;;;16.54;61.79;95578.59;5017190;28;19964;-73
2023/08/15 04:04:10;;;;;;;;;;;;;;;15.47;68.50;95624.44;5011994;28;20751;-70
2023/08/15 04:06:35;;;;;;;;;;;;;;;13.70;78.10;95612.53;5019186;28;19929;-70
2023/08/15 04:09:00;;;;;;;;;;;;;;;14.12;77.61;95625.13;5019765;28;20318;-70
2023/08/15 04:11:26;;;;;;;;;;;;;;;13.63;76.55;95619.72;5018021;28;19983;-70
2023/08/15 04:13:51;;;;;;;;;;;;;;;13.15;77.05;95629.28;5018072;28;19925;-70
2023/08/15 04:16:16;;;;;;;;;;;;;;;13.54;74.45;95623.56;5019324;28;19972;-70
2023/08/15 04:18:41;;;;;;;;;;;;;;;13.97;72.94;95621.75;5019439;28;19987;-70
2023/08/15 04:21:06;;;;;;;;;;;;;;;14.18;70.77;95626.16;5016559;28;19925;-70
2023/08/15 04:23:32;;;;;;;;;;;;;;;14.22;70.55;95619.38;5017661;28;19917;-70
2023/08/15 04:25:57;;;;;;;;;;;;;;;14.18;70.17;95624.28;5018726;28;19925;-70
2023/08/15 04:28:22;;;;;;;;;;;;;;;13.93;70.27;95630.19;5019324;28;19917;-70
2023/08/15 04:30:47;;;;;;;;;;;;;;;14.29;69.27;95616.72;5018341;28;20087;-70
2023/08/15 04:33:13;;;;;;;;;;;;;;;14.53;69.34;95612.66;5019339;28;20015;-71
2023/08/15 04:35:39;;;;;;;;;;;;;;;14.38;69.45;95601.28;5019478;28;20317;-71
2023/08/15 04:38:04;;;;;;;;;;;;;;;14.34;70.11;95598.19;5019474;28;19921;-70
2023/08/15 04:40:30;;;;;;;;;;;;;;;14.53;69.11;95604.63;5014353;28;20539;-71
2023/08/15 04:42:56;;;;;;;;;;;;;;;14.82;67.99;95591.88;5019424;28;19936;-71
2023/08/15 04:45:21;;;;;;;;;;;;;;;15.24;66.20;95574.75;5019300;28;19921;-71
2023/08/15 04:47:46;;;;;;;;;;;;;;;15.63;64.34;95569.53;5018691;28;20000;-71
2023/08/15 04:50:11;;;;;;;;;;;;;;;15.90;62.93;95560.56;5018225;28;20208;-71
2023/08/15 04:52:37;;;;;;;;;;;;;;;15.90;64.24;95558.69;5018673;28;20528;-71
2023/08/15 04:55:02;;;;;;;;;;;;;;;16.24;64.03;95543.22;5018208;28;20538;-71
2023/08/15 04:57:27;;;;;;;;;;;;;;;16.37;62.78;95542.34;5016928;28;19929;-71
2023/08/15 04:59:52;;;;;;;;;;;;;;;16.55;62.15;95537.28;5019440;28;19921;-71
2023/08/15 05:02:18;;;;;;;;;;;;;;;16.67;60.87;95542.75;5017213;28;19929;-71
2023/08/15 05:04:43;;;;;;;;;;;;;;;16.80;60.89;95521.16;5018256;28;19976;-71
2023/08/15 05:07:08;;;;;;;;;;;;;;;16.71;56.79;95506.31;5017181;28;19968;-71
2023/08/15 05:09:34;;;;;;;;;;;;;;;16.87;56.88;95492.31;5017365;28;19968;-71
2023/08/15 05:11:59;;;;;;;;;;;;;;;17.03;58.33;95468.59;5015984;28;19982;-71
2023/08/15 05:14:25;;;;;;;;;;;;;;;17.21;57.03;95435.56;5018420;28;19921;-72
2023/08/15 05:16:50;;;;;;;;;;;;;;;17.01;57.50;95404.31;5011759;28;19965;-72
2023/08/15 05:19:15;;;;;;;;;;;;;;;17.31;59.95;95426.94;5013614;28;20015;-71
2023/08/15 05:21:41;;;;;;;;;;;;;;;17.33;59.90;95467.88;5015950;28;19925;-72
2023/08/15 05:24:06;;;;;;;;;;;;;;;17.37;57.34;95482.53;5016774;28;20020;-71
2023/08/15 05:26:31;;;;;;;;;;;;;;;17.63;57.04;95485.13;5009150;28;20460;-71
2023/08/15 05:28:57;;;;;;;;;;;;;;;17.57;58.67;95483.34;5013264;28;20005;-72
2023/08/15 05:31:22;;;;;;;;;;;;;;;17.57;58.29;95481.47;5015089;28;19971;-72
2023/08/15 05:33:47;;;;;;;;;;;;;;;17.57;59.22;95489.53;5016462;28;19961;-72
2023/08/15 05:36:12;;;;;;;;;;;;;;;17.56;59.57;95492.44;5014244;28;19972;-72
2023/08/15 05:38:38;;;;;;;;;;;;;;;17.67;59.90;95505.16;5015934;28;20389;-72
2023/08/15 05:41:03;;;;;;;;;;;;;;;17.77;60.75;95502.75;5016272;28;19917;-71
2023/08/15 05:43:28;;;;;;;;;;;;;;;17.70;57.64;95498.47;5017551;28;19982;-73
2023/08/15 05:45:53;;;;;;;;;;;;;;;17.68;59.33;95496.06;5017863;28;19925;-73
2023/08/15 05:48:19;;;;;;;;;;;;;;;17.73;58.93;95490.78;5017160;28;20020;-73
2023/08/15 05:50:44;;;;;;;;;;;;;;;17.78;58.14;95490.13;5013967;28;19929;-73
2023/08/15 05:53:09;;;;;;;;;;;;;;;17.82;59.21;95483.22;5018009;28;19929;-73
2023/08/15 05:55:34;;;;;;;;;;;;;;;17.95;59.47;95495.69;5017010;28;19941;-73
2023/08/15 05:58:00;;;;;;;;;;;;;;;18.03;58.88;95500.78;5015340;28;20376;-73
2023/08/15 06:00:25;;;;;;;;;;;;;;;18.07;57.25;95498.44;5017612;28;19947;-73
2023/08/15 06:02:50;;;;;;;;;;;;;;;18.13;58.41;95489.47;5017260;28;20008;-73
2023/08/15 06:05:16;;;;;;;;;;;;;;;18.28;57.88;95499.81;5015588;28;20832;-73
2023/08/15 06:07:41;;;;;;;;;;;;;;;18.43;58.23;95501.25;5013388;28;19964;-73
2023/08/15 06:10:07;;;;;;;;;;;;;;;18.64;58.56;95505.28;5016955;28;19921;-73
2023/08/15 06:12:32;;;;;;;;;;;;;;;18.82;57.40;95503.53;5013266;28;20547;-73
2023/08/15 06:14:58;;;;;;;;;;;;;;;18.99;58.30;95511.75;5015256;28;19921;-73
2023/08/15 06:17:23;;;;;;;;;;;;;;;19.13;57.08;95508.81;5013933;28;19929;-73
2023/08/15 06:19:48;;;;;;;;;;;;;;;19.34;58.39;95523.59;5017627;28;19928;-73
2023/08/15 06:22:15;;;;;;;;;;;;;;;19.37;54.37;95517.72;5013444;28;20619;-73
2023/08/15 06:24:40;;;;;;;;;;;;;;;19.53;57.40;95523.44;5017075;28;20460;-73
2023/08/15 06:27:05;;;;;;;;;;;;;;;19.61;53.57;95517.69;5016578;28;19933;-73
2023/08/15 06:29:30;;;;;;;;;;;;;;;19.76;54.70;95513.66;5017712;28;20571;-73
2023/08/15 06:31:57;;;;;;;;;;;;;;;19.82;52.40;95516.22;5016293;28;19982;-73
2023/08/15 06:34:22;;;;;;;;;;;;;;;19.89;55.86;95526.06;5015405;28;19983;-73
2023/08/15 06:36:47;;;;;;;;;;;;;;;20.02;54.71;95525.00;5016346;28;19929;-73
2023/08/15 06:39:13;;;;;;;;;;;;;;;19.65;48.29;95526.13;5016867;28;20377;-73
2023/08/15 06:41:38;;;;;;;;;;;;;;;19.55;54.61;95530.25;5013518;28;19928;-73
2023/08/15 06:44:03;;;;;;;;;;;;;;;19.32;48.36;95528.44;5011716;28;19932;-73
2023/08/15 06:46:29;;;;;;;;;;;;;;;18.86;50.49;95541.66;5013455;28;20011;-73
2023/08/15 06:48:54;;;;;;;;;;;;;;;19.51;47.88;95536.38;5017601;28;19928;-73
2023/08/15 06:51:19;;;;;;;;;;;;;;;19.77;53.64;95543.13;5015710;28;19925;-74
2023/08/15 06:53:44;;;;;;;;;;;;;;;19.87;51.77;95536.28;5013855;28;20034;-73
2023/08/15 06:56:10;;;;;;;;;;;;;;;20.31;49.56;95543.88;5015137;28;20405;-73
2023/08/15 06:58:35;;;;;;;;;;;;;;;20.01;48.63;95540.38;5014887;28;19929;-73
2023/08/15 07:01:01;;;;;;;;;;;;;;;19.78;50.86;95539.34;5016891;28;20020;-73
2023/08/15 07:03:26;;;;;;;;;;;;;;;19.37;48.95;95541.22;5014916;28;19932;-74
2023/08/15 07:05:51;;;;;;;;;;;;;;;19.07;50.88;95554.56;5012969;28;20485;-73
2023/08/15 07:08:17;;;;;;;;;;;;;;;20.01;51.89;95534.97;5008622;28;19962;-73
2023/08/15 07:10:42;;;;;;;;;;;;;;;20.28;52.18;95537.09;5015450;28;20079;-74
2023/08/15 07:13:08;;;;;;;;;;;;;;;20.58;50.20;95532.47;5016683;28;19964;-74
2023/08/15 07:15:33;;;;;;;;;;;;;;;19.87;47.46;95538.97;5014084;28;19952;-74
2023/08/15 07:17:58;;;;;;;;;;;;;;;20.41;46.54;95546.78;5015093;28;19928;-74
2023/08/15 07:20:24;;;;;;;;;;;;;;;19.85;49.95;95547.31;5012389;28;19925;-74
2023/08/15 07:22:49;;;;;;;;;;;;;;;20.26;48.55;95546.50;5004841;28;20020;-74
2023/08/15 07:25:15;;;;;;;;;;;;;;;20.84;49.93;95543.75;4995430;28;20669;-74
2023/08/15 07:27:40;;;;;;;;;;;;;;;20.34;51.40;95541.53;4994356;28;19936;-74
2023/08/15 07:30:06;;;;;;;;;;;;;;;19.04;50.39;95546.94;4997065;28;20603;-74
2023/08/15 07:32:31;;;;;;;;;;;;;;;20.28;50.60;95547.91;4994800;28;19924;-74
2023/08/15 07:34:56;;;;;;;;;;;;;;;20.16;50.85;95549.84;4998378;28;19925;-74
2023/08/15 07:37:22;;;;;;;;;;;;;;;20.46;47.68;95540.63;4995083;28;20000;-74
2023/08/15 07:39:52;;;;;;;;;;;;;;;21.02;49.76;95553.50;5011519;28;20631;-75
2023/08/15 07:42:17;;;;;;;;;;;;;;;21.18;47.73;95559.13;5014070;28;21569;-74
2023/08/15 07:44:43;;;;;;;;;;;;;;;21.59;45.70;95567.84;5013924;28;19964;-75
2023/08/15 07:47:08;;;;;;;;;;;;;;;21.37;49.10;95568.66;5009530;28;19933;-75
2023/08/15 07:49:33;;;;;;;;;;;;;;;21.63;50.28;95569.00;4998928;28;19949;-74
2023/08/15 07:51:58;;;;;;;;;;;;;;;21.97;48.86;95564.56;4996435;28;19925;-74
2023/08/15 07:54:24;;;;;;;;;;;;;;;22.32;47.67;95563.31;4994481;28;19925;-74
2023/08/15 07:56:49;;;;;;;;;;;;;;;21.21;46.37;95570.28;4979506;28;20044;-74
2023/08/15 07:59:14;;;;;;;;;;;;;;;21.82;48.42;95579.53;4992784;28;20571;-75
2023/08/15 08:01:39;;;;;;;;;;;;;;;22.24;47.72;95582.75;5000684;28;19921;-75
2023/08/15 08:04:05;;;;;;;;;;;;;;;22.22;46.53;95576.75;5012837;28;19921;-74
2023/08/15 08:06:30;;;;;;;;;;;;;;;22.71;47.00;95572.41;5016573;28;23137;-75
2023/08/15 08:08:55;;;;;;;;;;;;;;;22.77;43.85;95582.19;5017191;28;20024;-74
2023/08/15 08:11:20;;;;;;;;;;;;;;;22.10;45.59;95580.41;5000722;28;20412;-74
2023/08/15 08:13:46;;;;;;;;;;;;;;;22.75;45.62;95587.06;4997895;28;20006;-74
2023/08/15 08:16:11;;;;;;;;;;;;;;;23.04;44.28;95584.06;4997031;28;19980;-74
2023/08/15 08:18:36;;;;;;;;;;;;;;;22.63;44.81;95579.91;4998419;28;19921;-74
2023/08/15 08:21:03;;;;;;;;;;;;;;;22.62;47.08;95589.13;4997439;28;19972;-74
2023/08/15 08:23:29;;;;;;;;;;;;;;;22.62;43.86;95602.69;4992548;28;20421;-74
2023/08/15 08:25:54;;;;;;;;;;;;;;;23.45;43.31;95607.19;4999383;28;19965;-74
2023/08/15 08:28:19;;;;;;;;;;;;;;;24.18;41.65;95616.56;4997799;28;19957;-74
2023/08/15 08:30:44;;;;;;;;;;;;;;;24.10;42.02;95619.78;4993946;28;19957;-74
2023/08/15 08:33:10;;;;;;;;;;;;;;;24.29;40.53;95622.84;4999446;28;19996;-74
2023/08/15 08:35:35;;;;;;;;;;;;;;;24.39;41.40;95622.09;4998341;28;19929;-74
2023/08/15 08:38:00;;;;;;;;;;;;;;;24.41;40.61;95620.72;4998420;28;19928;-75
2023/08/15 08:40:26;;;;;;;;;;;;;;;23.88;41.65;95621.59;4998738;28;19926;-74
2023/08/15 08:42:51;;;;;;;;;;;;;;;24.33;40.24;95613.09;4992841;28;20017;-74
2023/08/15 08:45:17;;;;;;;;;;;;;;;24.11;38.93;95616.81;4996161;28;20039;-72
2023/08/15 08:47:42;;;;;;;;;;;;;;;23.51;40.57;95614.28;4992230;28;19965;-71
2023/08/15 08:50:09;;;;;;;;;;;;;;;23.09;42.30;95613.97;4983906;28;19956;-71
2023/08/15 08:52:35;;;;;;;;;;;;;;;22.13;43.62;95607.03;4991987;28;19922;-71
2023/08/15 08:55:01;;;;;;;;;;;;;;;22.77;42.79;95609.34;4997729;28;19925;-71
2023/08/15 08:57:27;;;;;;;;;;;;;;;21.90;42.95;95608.88;4988684;28;20555;-71
2023/08/15 08:59:52;;;;;;;;;;;;;;;22.33;44.11;95608.31;4998976;28;19925;-71
2023/08/15 09:02:19;;;;;;;;;;;;;;;22.57;43.02;95604.53;4991145;28;19990;-71
2023/08/15 09:04:44;;;;;;;;;;;;;;;22.61;43.00;95606.47;4995486;28;20254;-72
2023/08/15 09:07:09;;;;;;;;;;;;;;;23.20;43.07;95606.75;4996335;28;19949;-72
2023/08/15 09:09:34;;;;;;;;;;;;;;;23.36;42.25;95615.00;4996345;28;19973;-71
2023/08/15 09:12:00;;;;;;;;;;;;;;;23.00;39.81;95607.34;4998410;28;20652;-72
2023/08/15 09:14:25;;;;;;;;;;;;;;;23.10;39.34;95612.88;4997916;28;20461;-72
2023/08/15 09:16:50;;;;;;;;;;;;;;;22.62;40.25;95615.44;4998893;28;19988;-71
2023/08/15 09:19:15;;;;;;;;;;;;;;;23.10;39.04;95615.59;4994840;28;19961;-71
2023/08/15 09:21:41;;;;;;;;;;;;;;;23.40;39.32;95618.84;4976466;28;19926;-71
2023/08/15 09:24:06;;;;;;;;;;;;;;;22.61;40.07;95620.03;4992642;28;19928;-71
2023/08/15 09:26:32;;;;;;;;;;;;;;;23.79;39.47;95617.72;4995560;28;19925;-71
2023/08/15 09:28:57;;;;;;;;;;;;;;;24.08;39.51;95611.88;4994453;28;19921;-71
2023/08/15 09:31:23;;;;;;;;;;;;;;;24.56;38.72;95619.13;5009920;28;20014;-71
2023/08/15 09:33:48;;;;;;;;;;;;;;;24.25;38.17;95619.84;5010924;28;19921;-71
2023/08/15 09:36:13;;;;;;;;;;;;;;;23.75;38.69;95620.16;5014085;28;19934;-71
2023/08/15 09:38:39;;;;;;;;;;;;;;;23.28;38.50;95627.97;5013684;28;20393;-71
2023/08/15 09:41:04;;;;;;;;;;;;;;;23.69;38.19;95626.59;5015681;28;19921;-71
2023/08/15 09:43:30;;;;;;;;;;;;;;;23.84;38.19;95627.81;5009606;28;19948;-70
2023/08/15 09:45:55;;;;;;;;;;;;;;;24.03;38.58;95628.19;5013163;28;19932;-72
2023/08/15 09:48:21;;;;;;;;;;;;;;;23.45;37.58;95631.63;5013118;28;19933;-72
2023/08/15 09:50:49;;;;;;;;;;;;;;;23.32;39.33;95644.59;4995229;28;20194;-71
2023/08/15 09:53:14;;;;;;;;;;;;;;;23.71;39.19;95634.50;5015099;28;19928;-72
2023/08/15 09:55:40;;;;;;;;;;;;;;;23.86;38.30;95642.78;5013629;28;19976;-71
2023/08/15 09:58:05;;;;;;;;;;;;;;;23.64;39.13;95646.44;5013668;28;19927;-71
2023/08/15 10:00:30;;;;;;;;;;;;;;;23.34;40.53;95645.13;4994440;28;20363;-71
2023/08/15 10:03:07;;;;;;;;;;;;;;;23.60;40.37;95653.47;4995287;28;20559;-71
2023/08/15 10:05:33;;;;;;;;;;;;;;;23.92;39.19;95652.59;4987200;28;20503;-72
2023/08/15 10:07:58;;;;;;;;;;;;;;;23.84;39.45;95650.38;4979381;28;19930;-71
2023/08/15 10:10:23;;;;;;;;;;;;;;;23.80;39.90;95652.78;4992762;28;20028;-71
2023/08/15 10:12:49;;;;;;;;;;;;;;;23.54;38.83;95657.22;4995386;28;19987;-72
2023/08/15 10:15:14;;;;;;;;;;;;;;;23.90;39.27;95652.03;5004221;28;19932;-72
2023/08/15 10:17:39;;;;;;;;;;;;;;;23.31;41.20;95659.22;5015354;28;19932;-71
2023/08/15 10:20:10;;;;;;;;;;;;;;;23.03;40.86;95656.53;5010332;28;20570;-73
2023/08/15 10:22:42;;;;;;;;;;;;;;;24.06;40.25;95652.94;5011316;28;20437;-73
2023/08/15 10:25:23;;;;;;;;;;;;;;;23.45;39.46;95669.66;5017036;28;20648;-72
2023/08/15 10:27:49;;;;;;;;;;;;;;;23.65;40.46;95664.38;5014392;28;19972;-71
2023/08/15 10:30:27;;;;;;;;;;;;;;;24.42;38.58;95660.47;5008487;28;20047;-71
2023/08/15 10:32:52;;;;;;;;;;;;;;;24.32;39.04;95671.25;5015061;28;19979;-72
2023/08/15 10:35:23;;;;;;;;;;;;;;;23.70;39.53;95666.31;5008004;28;19925;-72
2023/08/15 10:37:48;;;;;;;;;;;;;;;22.81;41.57;95661.22;5010907;28;20020;-72
2023/08/15 10:40:13;;;;;;;;;;;;;;;23.16;40.89;95657.22;5011256;28;20012;-72
2023/08/15 10:42:57;;;;;;;;;;;;;;;23.30;41.10;95668.47;5014593;28;19961;-72
2023/08/15 10:45:23;;;;;;;;;;;;;;;23.61;40.89;95671.41;5013391;28;19921;-72
2023/08/15 10:47:48;;;;;;;;;;;;;;;23.40;41.24;95667.72;5014348;28;20432;-72
2023/08/15 10:50:13;;;;;;;;;;;;;;;24.02;40.39;95670.03;5015317;28;19952;-72
2023/08/15 10:52:41;;;;;;;;;;;;;;;23.99;40.98;95673.31;5012117;28;19960;-72
2023/08/15 10:55:07;;;;;;;;;;;;;;;23.13;42.13;95673.97;5014799;28;19976;-72
2023/08/15 10:57:32;;;;;;;;;;;;;;;23.73;41.94;95678.53;5016627;28;20019;-72
2023/08/15 10:59:58;;;;;;;;;;;;;;;24.10;41.16;95672.25;5015077;28;19932;-72
2023/08/15 11:02:23;;;;;;;;;;;;;;;24.10;41.63;95677.69;5015256;28;19972;-74
2023/08/15 11:04:48;;;;;;;;;;;;;;;24.62;40.72;95677.94;5013652;28;19964;-72
2023/08/15 11:07:23;;;;;;;;;;;;;;;23.95;41.33;95683.88;5014965;28;20410;-72
2023/08/15 11:09:49;;;;;;;;;;;;;;;23.92;41.11;95695.25;5011788;28;20230;-71
2023/08/15 11:12:15;;;;;;;;;;;;;;;23.47;42.35;95700.91;5016314;28;19932;-72
2023/08/15 11:14:40;;;;;;;;;;;;;;;23.64;41.64;95699.94;5008323;28;19925;-72
2023/08/15 11:17:06;;;;;;;;;;;;;;;23.65;42.47;95699.69;5011050;28;20172;-72
2023/08/15 11:19:32;;;;;;;;;;;;;;;23.70;41.48;95698.91;5014397;28;19933;-72
2023/08/15 11:21:58;;;;;;;;;;;;;;;22.97;42.69;95708.31;5014927;28;19924;-72
2023/08/15 11:24:23;;;;;;;;;;;;;;;22.87;43.20;95704.41;5016244;28;19921;-72
2023/08/15 11:26:48;;;;;;;;;;;;;;;22.96;43.11;95712.09;5015034;28;19925;-72
2023/08/15 11:29:14;;;;;;;;;;;;;;;22.21;45.24;95702.53;5016447;28;20040;-72
2023/08/15 11:31:39;;;;;;;;;;;;;;;21.92;46.12;95710.81;5015930;28;19929;-71
2023/08/15 11:34:05;;;;;;;;;;;;;;;21.65;47.15;95701.44;5014704;28;19963;-72
2023/08/15 11:36:30;;;;;;;;;;;;;;;21.12;47.98;95705.19;5013877;28;19940;-72
2023/08/15 11:38:56;;;;;;;;;;;;;;;20.92;49.02;95712.94;4999026;28;20364;-71
2023/08/15 11:41:22;;;;;;;;;;;;;;;20.47;50.03;95709.91;5019679;28;20356;-71
2023/08/15 11:43:47;;;;;;;;;;;;;;;20.54;49.38;95716.00;5019187;28;19953;-72
2023/08/15 11:46:12;;;;;;;;;;;;;;;20.52;49.32;95718.13;5014970;28;19940;-72
2023/08/15 11:48:37;;;;;;;;;;;;;;;20.00;50.62;95722.47;5020801;28;19921;-72
2023/08/15 11:51:03;;;;;;;;;;;;;;;19.93;51.29;95727.13;5018272;28;19925;-71
2023/08/15 11:53:28;;;;;;;;;;;;;;;20.06;50.52;95721.50;5017676;28;20023;-72
2023/08/15 11:55:54;;;;;;;;;;;;;;;20.16;50.17;95730.91;5013538;28;20298;-71
2023/08/15 11:58:22;;;;;;;;;;;;;;;20.50;49.14;95717.56;5018851;28;19986;-72
2023/08/15 12:00:48;;;;;;;;;;;;;;;20.59;48.91;95723.38;5017439;28;19932;-72
2023/08/15 12:03:13;;;;;;;;;;;;;;;20.95;48.75;95726.81;5019842;28;19925;-73
2023/08/15 12:05:38;;;;;;;;;;;;;;;21.20;47.95;95727.50;5016362;28;19929;-73
2023/08/15 12:08:03;;;;;;;;;;;;;;;21.44;47.68;95732.81;5018306;28;19921;-73
2023/08/15 12:10:29;;;;;;;;;;;;;;;21.54;48.27;95737.56;5016769;28;20038;-73
2023/08/15 12:12:54;;;;;;;;;;;;;;;21.30;48.00;95738.56;5016352;28;20021;-73
2023/08/15 12:15:19;;;;;;;;;;;;;;;21.23;48.96;95727.84;5018607;28;20042;-73
2023/08/15 12:17:44;;;;;;;;;;;;;;;21.69;47.37;95718.03;5018337;28;19929;-73
2023/08/15 12:20:11;;;;;;;;;;;;;;;21.75;47.05;95709.75;5019644;28;20201;-72
2023/08/15 12:22:39;;;;;;;;;;;;;;;21.74;46.59;95708.13;5017692;28;19968;-73
2023/08/15 12:25:04;;;;;;;;;;;;;;;21.94;46.21;95698.66;4998648;28;19921;-73
2023/08/15 12:27:30;;;;;;;;;;;;;;;21.90;46.73;95687.47;5001008;28;19932;-72
2023/08/15 12:29:55;;;;;;;;;;;;;;;21.83;46.33;95694.13;5000645;28;19971;-73
2023/08/15 12:32:20;;;;;;;;;;;;;;;21.65;46.74;95687.91;5019105;28;19927;-73
2023/08/15 12:34:46;;;;;;;;;;;;;;;21.47;46.58;95684.41;5017124;28;19939;-72
2023/08/15 12:37:11;;;;;;;;;;;;;;;21.48;45.80;95686.03;5013619;28;19925;-73
2023/08/15 12:39:36;;;;;;;;;;;;;;;21.55;47.04;95696.69;5017457;28;19965;-74